Time;durP1;ratioP1;P1;durP2;ratioP2;P2;SDS_P1;SDS_P2;PMS_P1;PMS_P2;Temp;Humidity;BMP_temperature;BMP_pressure;BME280_temperature;BME280_humidity;BME280_pressure;Samples;Min_cycle;Max_cycle;Signal;HPM_P1;HPM_P2
2021/01/24 00:00:34;;;;;;;11.63;5.90;;;;;;;4.15;88.60;97596.75;4954354;29;20047;-69
2021/01/24 00:03:03;;;;;;;9.98;5.53;;;;;;;4.18;88.41;97595.88;4954299;29;20533;-69
2021/01/24 00:05:31;;;;;;;8.52;5.45;;;;;;;4.20;88.33;97599.25;4954055;29;20055;-69
2021/01/24 00:07:59;;;;;;;11.75;6.10;;;;;;;4.20;88.20;97600.06;4953902;29;20042;-69
2021/01/24 00:10:26;;;;;;;11.18;5.70;;;;;;;4.15;88.21;97596.75;4954446;29;20039;-70
2021/01/24 00:12:54;;;;;;;10.57;5.85;;;;;;;4.14;88.66;97597.59;4954195;28;20126;-69
2021/01/24 00:15:22;;;;;;;10.02;5.85;;;;;;;4.14;88.88;97591.72;4953937;29;20527;-70
2021/01/24 00:17:51;;;;;;;10.20;5.97;;;;;;;4.15;88.57;97580.78;4967062;28;20055;-69
2021/01/24 00:20:19;;;;;;;7.83;4.37;;;;;;;4.13;88.62;97572.41;4973160;28;20042;-69
2021/01/24 00:22:47;;;;;;;10.15;6.30;;;;;;;4.13;88.47;97577.44;4973301;28;20034;-69
2021/01/24 00:25:15;;;;;;;10.20;6.43;;;;;;;4.17;88.26;97579.06;4973020;28;20049;-69
2021/01/24 00:27:44;;;;;;;8.75;5.75;;;;;;;4.17;88.17;97568.97;4973030;28;20043;-69
2021/01/24 00:30:16;;;;;;;12.38;5.97;;;;;;;3.97;88.59;97551.50;4973042;28;20577;-69
2021/01/24 00:32:43;;;;;;;12.70;6.03;;;;;;;4.17;88.30;97574.03;4973052;28;20535;-69
2021/01/24 00:35:12;;;;;;;11.43;6.28;;;;;;;4.16;88.53;97568.13;4982510;28;20428;-69
2021/01/24 00:37:40;;;;;;;12.13;6.57;;;;;;;4.15;87.72;97570.69;4994347;28;20046;-69
2021/01/24 00:40:09;;;;;;;13.20;7.20;;;;;;;4.17;88.55;97558.88;4994570;28;20050;-68
2021/01/24 00:42:37;;;;;;;10.17;5.97;;;;;;;4.17;88.32;97553.84;4994557;28;20068;-68
2021/01/24 00:45:08;;;;;;;10.82;5.78;;;;;;;4.17;87.85;97553.84;4994262;28;20342;-69
2021/01/24 00:47:37;;;;;;;11.82;5.68;;;;;;;4.22;88.38;97552.09;4994559;28;20050;-69
2021/01/24 00:50:06;;;;;;;10.70;5.53;;;;;;;4.06;88.43;97524.50;4994170;28;20034;-70
2021/01/24 00:52:35;;;;;;;12.48;6.10;;;;;;;4.18;87.90;97545.41;4994133;28;20459;-69
2021/01/24 00:55:02;;;;;;;9.80;5.35;;;;;;;4.19;88.46;97536.97;4994101;28;20050;-69
2021/01/24 00:57:32;;;;;;;11.63;6.03;;;;;;;4.17;87.61;97531.13;4998241;28;20087;-69
2021/01/24 01:00:00;;;;;;;10.75;5.72;;;;;;;4.18;87.72;97525.19;5013367;28;20134;-69
2021/01/24 01:02:28;;;;;;;9.43;4.93;;;;;;;4.17;88.00;97526.06;4998436;28;20141;-69
2021/01/24 01:04:55;;;;;;;10.80;5.70;;;;;;;4.15;87.83;97521.03;4998173;28;20050;-69
2021/01/24 01:07:23;;;;;;;10.40;5.90;;;;;;;4.16;87.95;97501.69;5013525;28;20045;-69
2021/01/24 01:09:52;;;;;;;10.98;6.13;;;;;;;4.16;87.36;97499.16;4998060;28;20058;-69
2021/01/24 01:12:19;;;;;;;10.40;5.60;;;;;;;4.15;87.61;97495.78;4998029;28;20042;-69
2021/01/24 01:14:47;;;;;;;13.07;5.85;;;;;;;4.14;87.90;97476.47;4997889;28;20038;-69
2021/01/24 01:17:15;;;;;;;14.35;6.60;;;;;;;4.11;87.72;97480.69;4997607;28;20521;-69
2021/01/24 01:19:43;;;;;;;12.48;6.97;;;;;;;4.05;87.76;97466.47;4997825;28;20046;-69
2021/01/24 01:22:12;;;;;;;12.60;6.53;;;;;;;3.88;88.29;97440.59;4997872;28;20054;-69
2021/01/24 01:24:40;;;;;;;12.98;6.32;;;;;;;3.98;87.67;97458.13;4996751;28;20050;-68
2021/01/24 01:27:09;;;;;;;13.38;6.97;;;;;;;4.00;87.97;97448.88;4997711;28;20113;-69
2021/01/24 01:29:36;;;;;;;13.63;7.20;;;;;;;4.01;88.45;97442.09;4997667;28;20045;-69
2021/01/24 01:32:04;;;;;;;13.48;7.70;;;;;;;4.02;88.41;97454.72;4997591;28;20070;-69
2021/01/24 01:34:32;;;;;;;13.55;7.28;;;;;;;4.04;88.53;97460.59;4997584;28;20039;-68
2021/01/24 01:37:02;;;;;;;15.50;7.65;;;;;;;4.05;88.24;97458.91;4997831;28;20141;-69
2021/01/24 01:39:30;;;;;;;15.70;8.10;;;;;;;4.04;88.31;97460.59;4997446;28;20516;-69
2021/01/24 01:41:57;;;;;;;14.15;7.53;;;;;;;4.04;87.76;97457.22;4997704;28;20496;-68
2021/01/24 01:44:26;;;;;;;15.88;8.52;;;;;;;4.07;88.56;97450.47;4997591;28;20044;-69
2021/01/24 01:46:56;;;;;;;15.20;8.07;;;;;;;4.12;88.22;97442.00;4997423;28;20122;-69
2021/01/24 01:49:24;;;;;;;15.63;8.10;;;;;;;4.11;88.75;97438.63;4997478;28;20093;-69
2021/01/24 01:51:53;;;;;;;15.00;7.90;;;;;;;4.10;88.28;97431.09;4997538;28;20053;-68
2021/01/24 01:54:21;;;;;;;15.45;7.80;;;;;;;4.07;88.15;97432.81;4997230;28;20117;-69
2021/01/24 01:56:49;;;;;;;17.17;8.77;;;;;;;4.11;88.27;97425.19;4997131;28;20042;-69
2021/01/24 01:59:17;;;;;;;17.25;8.30;;;;;;;4.08;88.56;97423.53;4997060;28;20069;-69
2021/01/24 02:01:58;;;;;;;14.55;8.23;;;;;;;4.11;88.55;97422.66;4997109;28;20047;-69
2021/01/24 02:04:33;;;;;;;17.63;8.18;;;;;;;4.13;89.21;97423.50;4997114;28;20082;-69
2021/01/24 02:07:09;;;;;;;18.35;8.70;;;;;;;4.12;89.05;97415.09;4996142;28;20145;-68
2021/01/24 02:09:42;;;;;;;16.25;8.27;;;;;;;4.12;89.09;97404.16;4996999;28;20081;-69
2021/01/24 02:12:17;;;;;;;19.20;8.68;;;;;;;4.13;88.60;97411.69;4996965;28;20054;-69
2021/01/24 02:14:55;;;;;;;18.55;9.30;;;;;;;4.17;88.68;97407.44;4996003;28;20125;-69
2021/01/24 02:17:27;;;;;;;16.40;9.02;;;;;;;4.13;89.37;97416.75;4996828;28;20081;-69
2021/01/24 02:20:07;;;;;;;19.13;9.15;;;;;;;4.18;88.65;97419.19;4996795;28;20129;-69
2021/01/24 02:22:38;;;;;;;17.38;9.50;;;;;;;4.19;88.59;97420.88;4996846;28;20054;-70
2021/01/24 02:25:14;;;;;;;19.83;8.98;;;;;;;4.19;88.49;97425.94;4997082;28;20141;-70
2021/01/24 02:27:47;;;;;;;19.30;9.65;;;;;;;4.16;89.13;97425.97;4996798;28;20050;-70
2021/01/24 02:30:22;;;;;;;20.00;9.57;;;;;;;4.15;88.96;97441.97;4996690;28;20054;-71
2021/01/24 02:32:57;;;;;;;20.95;9.25;;;;;;;3.92;89.31;97390.09;4996576;28;20054;-70
2021/01/24 02:35:28;;;;;;;22.17;9.82;;;;;;;4.20;89.09;97428.44;4996448;28;20054;-71
2021/01/24 02:37:59;;;;;;;19.02;9.55;;;;;;;4.20;89.68;97418.31;4996567;28;20101;-70
2021/01/24 02:40:29;;;;;;;17.58;9.13;;;;;;;4.24;89.50;97419.16;5011853;28;20061;-71
2021/01/24 02:42:58;;;;;;;21.13;9.85;;;;;;;4.21;89.51;97417.50;4996533;28;20058;-70
2021/01/24 02:45:26;;;;;;;20.33;9.77;;;;;;;4.23;88.99;97422.50;4996240;28;20113;-71
2021/01/24 02:47:55;;;;;;;17.80;8.93;;;;;;;4.24;88.81;97420.00;4996692;28;20492;-70
2021/01/24 02:50:23;;;;;;;16.40;8.43;;;;;;;4.26;89.42;97414.91;4996203;28;20530;-71
2021/01/24 02:52:52;;;;;;;17.77;8.55;;;;;;;4.24;89.32;97414.94;4996287;28;20085;-70
2021/01/24 02:55:20;;;;;;;19.67;8.90;;;;;;;4.25;89.33;97405.69;4996123;28;20097;-71
2021/01/24 02:57:48;;;;;;;18.60;9.20;;;;;;;4.26;89.38;97407.34;4996178;28;20125;-71
2021/01/24 03:00:16;;;;;;;17.13;8.43;;;;;;;4.22;89.51;97421.69;4979035;28;20049;-71
2021/01/24 03:02:46;;;;;;;16.05;8.00;;;;;;;4.22;89.65;97408.22;4995991;28;20050;-71
2021/01/24 03:05:14;;;;;;;22.17;8.17;;;;;;;4.20;89.27;97408.22;4996292;28;20043;-71
2021/01/24 03:07:44;;;;;;;16.55;7.88;;;;;;;4.22;89.10;97414.13;4995828;28;20331;-70
2021/01/24 03:10:13;;;;;;;16.65;8.25;;;;;;;4.19;88.77;97409.09;4995902;28;20041;-70
2021/01/24 03:12:49;;;;;;;16.77;8.95;;;;;;;4.16;89.07;97415.88;4996077;28;20074;-71
2021/01/24 03:15:19;;;;;;;19.13;9.07;;;;;;;4.07;89.89;97400.00;4995731;28;20065;-71
2021/01/24 03:17:50;;;;;;;20.27;8.68;;;;;;;4.13;89.92;97415.94;4995459;28;20062;-71
2021/01/24 03:20:20;;;;;;;18.05;9.15;;;;;;;4.18;89.66;97419.19;4996151;28;20085;-71
2021/01/24 03:22:48;;;;;;;17.65;8.43;;;;;;;4.13;89.93;97426.03;4995582;28;20571;-71
2021/01/24 03:25:17;;;;;;;18.35;8.40;;;;;;;4.07;89.51;97421.88;4995920;28;20081;-71
2021/01/24 03:27:46;;;;;;;18.92;7.97;;;;;;;4.07;90.02;97427.75;4995855;28;20170;-71
2021/01/24 03:30:14;;;;;;;17.48;8.13;;;;;;;4.10;89.56;97436.13;4995401;28;20125;-70
2021/01/24 03:32:42;;;;;;;18.73;8.57;;;;;;;4.08;90.00;97439.50;4995416;28;20500;-71
2021/01/24 03:35:12;;;;;;;17.30;7.32;;;;;;;4.02;89.76;97448.84;4995712;28;20554;-71
2021/01/24 03:37:40;;;;;;;14.27;6.85;;;;;;;3.97;90.03;97445.53;4995577;28;20164;-71
2021/01/24 03:40:09;;;;;;;15.57;6.97;;;;;;;3.76;89.99;97423.91;4995259;28;20042;-71
2021/01/24 03:42:36;;;;;;;14.43;6.90;;;;;;;3.80;89.84;97444.88;4995232;28;20045;-72
2021/01/24 03:45:05;;;;;;;13.43;5.82;;;;;;;3.69;90.27;97450.03;4995175;28;20057;-71
2021/01/24 03:47:35;;;;;;;12.60;6.03;;;;;;;3.41;90.00;97420.88;4995121;28;20519;-71
2021/01/24 03:50:04;;;;;;;11.32;5.55;;;;;;;3.58;89.61;97446.75;4995059;28;20054;-71
2021/01/24 03:52:33;;;;;;;10.30;5.50;;;;;;;3.57;89.54;97450.16;4995296;28;20042;-71
2021/01/24 03:55:00;;;;;;;10.18;5.03;;;;;;;3.58;90.20;97445.91;4994937;28;20108;-71
2021/01/24 03:57:29;;;;;;;11.93;5.18;;;;;;;3.55;90.12;97446.78;4995104;28;20046;-71
2021/01/24 03:59:56;;;;;;;8.38;3.88;;;;;;;3.54;89.50;97455.22;4994866;28;20038;-71
2021/01/24 04:02:25;;;;;;;7.80;3.90;;;;;;;3.52;89.34;97456.91;4994931;28;20050;-71
2021/01/24 04:04:53;;;;;;;7.18;3.70;;;;;;;3.50;89.96;97453.56;4994768;28;20038;-71
2021/01/24 04:07:20;;;;;;;7.35;3.67;;;;;;;3.49;89.81;97454.41;4994764;28;20042;-71
2021/01/24 04:09:49;;;;;;;5.25;2.75;;;;;;;3.41;89.78;97460.38;4994760;28;20037;-71
2021/01/24 04:12:17;;;;;;;5.78;3.22;;;;;;;3.39;89.28;97465.41;5009892;28;20062;-71
2021/01/24 04:14:45;;;;;;;5.78;2.97;;;;;;;3.32;89.55;97451.19;4994683;28;20046;-71
2021/01/24 04:17:12;;;;;;;5.22;2.80;;;;;;;3.38;89.18;97469.63;4994481;28;20058;-71
2021/01/24 04:19:40;;;;;;;4.20;2.53;;;;;;;3.36;89.96;97466.28;4994609;28;20057;-71
2021/01/24 04:22:10;;;;;;;4.93;2.47;;;;;;;3.40;89.35;97472.16;4994705;28;20490;-71
2021/01/24 04:24:37;;;;;;;4.20;2.30;;;;;;;3.41;89.68;97468.75;4994527;28;20054;-71
2021/01/24 04:27:06;;;;;;;4.93;2.35;;;;;;;3.41;90.02;97478.84;4994450;28;20092;-71
2021/01/24 04:29:34;;;;;;;5.00;2.38;;;;;;;3.35;89.01;97463.78;4994483;28;20073;-71
2021/01/24 04:32:02;;;;;;;4.47;2.10;;;;;;;3.33;89.49;97462.97;4994253;28;20066;-72
2021/01/24 04:34:30;;;;;;;4.57;2.72;;;;;;;3.36;89.97;97466.28;4994355;28;20049;-71
2021/01/24 04:36:57;;;;;;;4.47;2.30;;;;;;;3.34;89.06;97459.56;4994261;28;20038;-71
2021/01/24 04:39:25;;;;;;;4.55;2.25;;;;;;;3.32;88.85;97471.34;4994833;28;20073;-71
2021/01/24 04:41:53;;;;;;;5.00;2.40;;;;;;;3.26;89.54;97471.41;4994289;28;20042;-71
2021/01/24 04:44:23;;;;;;;4.97;2.22;;;;;;;3.22;89.41;97472.28;5009353;28;20451;-70
2021/01/24 04:46:52;;;;;;;3.50;2.03;;;;;;;3.25;89.56;97467.22;4994807;28;20081;-70
2021/01/24 04:49:20;;;;;;;4.80;2.63;;;;;;;3.25;89.63;97472.25;4994262;28;20400;-71
2021/01/24 04:51:48;;;;;;;4.30;2.20;;;;;;;3.16;89.44;97474.84;4994131;28;20121;-71
2021/01/24 04:54:17;;;;;;;4.05;2.15;;;;;;;3.08;89.14;97477.41;4993211;28;20125;-70
2021/01/24 04:56:44;;;;;;;3.80;2.22;;;;;;;3.07;89.18;97477.44;4994023;28;20046;-70
2021/01/24 04:59:12;;;;;;;4.28;2.50;;;;;;;3.03;89.03;97476.63;4994364;28;20054;-71
2021/01/24 05:01:43;;;;;;;4.50;2.22;;;;;;;3.01;88.89;97480.00;4994139;28;20046;-71
2021/01/24 05:04:14;;;;;;;5.28;2.72;;;;;;;3.06;88.85;97485.84;4994324;28;20042;-70
2021/01/24 05:06:43;;;;;;;4.45;2.60;;;;;;;3.04;89.01;97487.53;5009260;28;20043;-70
2021/01/24 05:09:10;;;;;;;4.72;2.40;;;;;;;2.85;88.84;97440.66;5009412;28;20046;-70
2021/01/24 05:11:38;;;;;;;5.00;2.60;;;;;;;3.12;88.98;97488.31;4994270;28;20065;-71
2021/01/24 05:14:11;;;;;;;4.75;2.33;;;;;;;3.13;89.28;97487.47;4994005;28;20045;-70
2021/01/24 05:16:42;;;;;;;4.03;2.17;;;;;;;3.16;89.29;97497.53;4993792;28;20065;-71
2021/01/24 05:19:11;;;;;;;4.50;2.55;;;;;;;3.07;89.04;97497.59;4993983;28;20135;-71
2021/01/24 05:21:39;;;;;;;4.22;2.40;;;;;;;3.02;89.03;97507.72;4993910;28;20047;-70
2021/01/24 05:24:09;;;;;;;4.30;2.60;;;;;;;3.04;88.32;97506.00;4993836;28;20058;-70
2021/01/24 05:26:38;;;;;;;3.83;2.00;;;;;;;2.97;88.55;97532.09;4993885;28;20046;-70
2021/01/24 05:29:18;;;;;;;4.68;2.08;;;;;;;2.93;88.96;97535.44;4993913;28;20076;-70
2021/01/24 05:31:48;;;;;;;4.85;2.47;;;;;;;2.84;88.68;97539.69;4993261;28;20100;-70
2021/01/24 05:34:16;;;;;;;5.75;3.03;;;;;;;2.48;88.85;97461.00;4993860;28;20050;-70
2021/01/24 05:36:46;;;;;;;6.20;2.90;;;;;;;2.87;88.27;97534.66;4993654;28;20049;-70
2021/01/24 05:39:14;;;;;;;4.85;2.63;;;;;;;2.86;88.88;97528.75;4994065;28;20453;-70
2021/01/24 05:41:47;;;;;;;5.57;2.60;;;;;;;2.79;89.12;97522.09;4993768;28;20459;-70
2021/01/24 05:44:18;;;;;;;5.47;2.63;;;;;;;2.88;89.15;97536.34;4997117;28;20073;-71
2021/01/24 05:46:47;;;;;;;5.43;2.63;;;;;;;2.87;88.78;97539.69;4997434;28;20392;-70
2021/01/24 05:49:23;;;;;;;4.78;2.70;;;;;;;2.82;88.63;97543.91;4997907;28;20072;-71
2021/01/24 05:51:56;;;;;;;5.22;2.28;;;;;;;2.69;88.29;97546.47;4997702;28;20137;-70
2021/01/24 05:54:37;;;;;;;6.00;3.00;;;;;;;2.60;88.48;97545.69;4997233;28;20058;-70
2021/01/24 05:57:05;;;;;;;5.20;2.80;;;;;;;2.57;88.47;97556.59;4997237;28;20046;-70
2021/01/24 05:59:49;;;;;;;4.43;2.50;;;;;;;2.56;89.23;97554.94;4997173;28;20038;-71
2021/01/24 06:02:19;;;;;;;5.85;2.80;;;;;;;2.62;88.40;97554.91;4997099;28;20415;-70
2021/01/24 06:05:08;;;;;;;;;;;;;;;2.67;88.49;97572.50;4938133;29;20058;-70
2021/01/24 06:07:35;;;;;;;6.88;3.28;;;;;;;2.75;88.59;97564.94;4936894;29;19922;-70
2021/01/24 06:10:04;;;;;;;5.47;2.63;;;;;;;2.77;88.46;97583.38;4937143;29;20044;-70
2021/01/24 06:12:35;;;;;;;5.13;3.03;;;;;;;2.77;89.01;97588.41;4937018;29;20047;-70
2021/01/24 06:15:04;;;;;;;6.07;3.03;;;;;;;2.81;89.58;97585.06;4936979;29;20518;-71
2021/01/24 06:17:38;;;;;;;6.53;3.20;;;;;;;2.79;88.46;97592.59;4936876;29;20055;-70
2021/01/24 06:20:08;;;;;;;6.20;3.35;;;;;;;2.80;89.62;97585.88;4937136;29;20056;-70
2021/01/24 06:22:43;;;;;;;6.50;3.17;;;;;;;2.78;89.32;97592.63;4936991;29;20135;-70
2021/01/24 06:25:17;;;;;;;5.72;3.13;;;;;;;2.76;88.96;97596.81;4936794;29;20121;-70
2021/01/24 06:27:51;;;;;;;7.15;3.20;;;;;;;2.81;89.31;97605.22;4936835;29;20047;-70
2021/01/24 06:30:21;;;;;;;6.82;3.20;;;;;;;2.86;89.62;97611.88;4937181;29;20582;-70
2021/01/24 06:32:50;;;;;;;5.78;3.35;;;;;;;2.89;88.88;97616.06;4936710;29;20051;-70
2021/01/24 06:35:21;;;;;;;6.53;3.17;;;;;;;2.88;89.01;97617.75;4936904;29;20056;-70
2021/01/24 06:37:51;;;;;;;7.65;3.53;;;;;;;2.86;88.57;97623.63;4936496;29;20086;-70
2021/01/24 06:40:22;;;;;;;6.82;3.05;;;;;;;2.85;89.21;97627.00;4936500;29;20139;-70
2021/01/24 06:42:54;;;;;;;5.63;3.28;;;;;;;2.91;88.74;97632.84;4980798;28;20100;-70
2021/01/24 06:45:28;;;;;;;5.57;3.20;;;;;;;2.95;89.77;97638.72;4978833;28;20408;-70
2021/01/24 06:47:58;;;;;;;6.05;2.92;;;;;;;2.99;89.34;97638.72;4996789;28;20050;-70
2021/01/24 06:50:32;;;;;;;6.28;3.20;;;;;;;2.92;89.69;97633.69;4996279;28;20050;-70
2021/01/24 06:53:03;;;;;;;6.13;2.95;;;;;;;2.89;88.94;97641.25;4995948;28;20050;-70
2021/01/24 06:55:31;;;;;;;7.15;3.63;;;;;;;2.89;88.74;97653.84;4994999;28;20129;-70
2021/01/24 06:57:59;;;;;;;5.93;2.95;;;;;;;2.87;88.60;97660.56;4995881;28;20049;-70
2021/01/24 07:00:29;;;;;;;5.57;3.05;;;;;;;2.85;88.72;97649.69;4996058;28;20058;-70
2021/01/24 07:03:16;;;;;;;6.32;3.60;;;;;;;2.84;88.82;97648.00;4995950;28;20133;-70
2021/01/24 07:05:47;;;;;;;6.68;3.50;;;;;;;2.86;88.83;97633.69;4995996;28;20062;-70
2021/01/24 07:08:20;;;;;;;6.88;3.60;;;;;;;2.80;89.58;97633.75;4995871;28;20058;-70
2021/01/24 07:10:49;;;;;;;8.27;4.82;;;;;;;2.80;88.83;97653.88;4995826;28;20125;-70
2021/01/24 07:13:22;;;;;;;8.35;4.10;;;;;;;2.82;89.62;97662.25;4995769;28;20046;-70
2021/01/24 07:15:52;;;;;;;6.03;3.03;;;;;;;2.83;88.90;97663.97;5011892;28;20133;-70
2021/01/24 07:18:22;;;;;;;6.10;3.17;;;;;;;2.81;89.41;97670.69;5015135;28;20412;-70
2021/01/24 07:20:51;;;;;;;;;;;;;;;2.88;88.78;97670.63;5015652;28;20057;-70
2021/01/24 07:23:19;;;;;;;7.82;3.75;;;;;;;2.77;89.07;97649.69;5015347;28;19928;-70
2021/01/24 07:25:48;;;;;;;7.28;3.35;;;;;;;2.93;89.29;97675.69;5015118;28;20216;-70
2021/01/24 07:28:16;;;;;;;7.28;3.58;;;;;;;2.48;89.07;97606.13;5014987;28;20046;-70
2021/01/24 07:30:44;;;;;;;8.27;4.03;;;;;;;2.97;89.64;97689.94;5015055;28;20045;-70
2021/01/24 07:33:13;;;;;;;8.45;4.32;;;;;;;3.02;89.20;97700.84;5015014;28;20088;-70
2021/01/24 07:35:45;;;;;;;7.53;3.85;;;;;;;3.06;89.63;97707.53;5014980;28;20450;-70
2021/01/24 07:38:15;;;;;;;8.57;4.47;;;;;;;3.10;89.51;97710.03;5014917;28;20069;-70
2021/01/24 07:40:43;;;;;;;8.70;4.55;;;;;;;2.97;89.56;97680.72;5014836;28;20085;-70
2021/01/24 07:43:14;;;;;;;7.43;4.30;;;;;;;3.09;89.49;97713.41;4997284;28;20458;-70
2021/01/24 07:45:42;;;;;;;8.55;4.28;;;;;;;3.10;89.75;97704.16;5014804;28;20045;-70
2021/01/24 07:48:10;;;;;;;7.88;4.53;;;;;;;3.13;88.70;97706.66;5015030;28;20077;-70
2021/01/24 07:50:38;;;;;;;8.27;4.38;;;;;;;3.18;89.48;97702.47;5014705;28;20049;-70
2021/01/24 07:53:08;;;;;;;8.52;4.60;;;;;;;3.22;89.52;97704.13;5014583;28;20038;-70
2021/01/24 07:55:37;;;;;;;7.57;4.50;;;;;;;3.18;89.21;97697.41;5014587;28;20155;-70
2021/01/24 07:58:05;;;;;;;8.65;4.70;;;;;;;3.24;88.59;97712.50;5014374;28;20117;-70
2021/01/24 08:00:34;;;;;;;8.23;4.47;;;;;;;3.21;88.83;97710.00;5014422;28;20058;-70
2021/01/24 08:03:02;;;;;;;8.90;4.13;;;;;;;3.24;88.43;97707.47;5014294;28;20050;-70
2021/01/24 08:05:33;;;;;;;9.03;4.80;;;;;;;3.28;87.91;97704.09;5014026;28;20388;-70
2021/01/24 08:08:01;;;;;;;8.02;4.40;;;;;;;3.33;88.55;97709.97;5014412;28;20499;-70
2021/01/24 08:10:30;;;;;;;8.93;4.45;;;;;;;3.44;88.09;97705.72;5014129;28;20073;-70
2021/01/24 08:12:59;;;;;;;8.70;4.93;;;;;;;3.67;87.14;97711.47;5014870;28;20128;-70
2021/01/24 08:15:27;;;;;;;8.25;4.63;;;;;;;3.80;86.77;97710.56;5013055;28;20082;-70
2021/01/24 08:17:58;;;;;;;9.53;4.67;;;;;;;4.08;86.86;97719.63;5014040;28;20496;-71
2021/01/24 08:20:28;;;;;;;8.02;4.15;;;;;;;4.52;85.76;97718.44;5014247;28;20306;-71
2021/01/24 08:22:57;;;;;;;8.10;4.10;;;;;;;4.61;84.85;97704.03;5014155;28;20453;-70
2021/01/24 08:25:25;;;;;;;6.78;4.10;;;;;;;4.84;83.71;97726.59;5013879;28;20052;-69
2021/01/24 08:27:54;;;;;;;7.45;4.28;;;;;;;5.00;83.44;97733.16;5013892;28;20388;-70
2021/01/24 08:30:22;;;;;;;6.40;3.80;;;;;;;5.08;82.79;97746.56;5014106;28;20125;-70
2021/01/24 08:32:51;;;;;;;8.45;4.20;;;;;;;5.23;83.03;97745.56;5013937;28;20121;-71
2021/01/24 08:35:19;;;;;;;7.43;4.10;;;;;;;5.23;82.44;97731.19;5014287;28;20050;-70
2021/01/24 08:37:47;;;;;;;7.95;3.75;;;;;;;5.16;81.24;97742.25;5013822;28;20056;-70
2021/01/24 08:40:15;;;;;;;7.15;3.65;;;;;;;5.28;81.20;97742.09;5013873;28;20514;-70
2021/01/24 08:42:46;;;;;;;5.93;3.17;;;;;;;5.30;81.36;97737.88;5014192;28;20205;-69
2021/01/24 08:45:20;;;;;;;6.18;3.10;;;;;;;5.30;80.26;97747.97;5013911;28;20046;-69
2021/01/24 08:47:51;;;;;;;6.60;3.53;;;;;;;5.33;79.80;97740.38;5014189;28;20377;-69
2021/01/24 08:50:19;;;;;;;6.72;3.80;;;;;;;5.26;80.28;97745.50;5013789;28;20495;-69
2021/01/24 08:52:54;;;;;;;6.38;3.88;;;;;;;5.28;79.30;97742.09;5013760;28;20057;-69
2021/01/24 08:55:21;;;;;;;7.25;3.80;;;;;;;5.37;79.59;97734.41;5013759;28;20463;-69
2021/01/24 08:57:49;;;;;;;6.32;3.75;;;;;;;5.39;78.91;97732.72;5013559;28;20069;-69
2021/01/24 09:00:20;;;;;;;6.50;3.60;;;;;;;5.46;78.86;97742.75;5013688;28;20069;-69
2021/01/24 09:02:48;;;;;;;6.20;3.50;;;;;;;5.58;78.89;97752.72;5013651;28;20522;-69
2021/01/24 09:05:31;;;;;;;6.10;3.17;;;;;;;5.59;78.29;97759.47;5013900;28;20392;-69
2021/01/24 09:07:59;;;;;;;6.18;3.25;;;;;;;5.52;78.02;97753.63;5013654;28;20072;-68
2021/01/24 09:10:30;;;;;;;6.18;3.47;;;;;;;5.66;77.79;97766.13;5013599;28;20046;-69
2021/01/24 09:12:59;;;;;;;5.50;3.20;;;;;;;5.83;77.30;97771.81;4996212;28;20061;-68
2021/01/24 09:15:30;;;;;;;6.40;3.43;;;;;;;5.85;76.61;97772.66;5013497;28;20404;-69
2021/01/24 09:17:59;;;;;;;5.55;3.42;;;;;;;5.93;76.22;97770.84;5016514;28;20046;-68
2021/01/24 09:20:29;;;;;;;4.55;3.10;;;;;;;6.12;76.05;97779.06;5017488;28;20452;-69
2021/01/24 09:22:57;;;;;;;5.90;2.92;;;;;;;6.37;75.59;97787.97;5018173;28;20057;-68
2021/01/24 09:25:25;;;;;;;6.18;3.70;;;;;;;6.59;75.72;97795.25;5017307;28;20046;-69
2021/01/24 09:27:53;;;;;;;5.43;3.33;;;;;;;6.55;75.36;97811.34;5017312;28;20060;-68
2021/01/24 09:30:22;;;;;;;6.70;3.85;;;;;;;6.62;75.07;97797.72;5017289;28;20488;-69
2021/01/24 09:32:53;;;;;;;6.45;3.45;;;;;;;6.52;75.52;97791.13;5017227;28;20130;-68
2021/01/24 09:35:21;;;;;;;7.97;3.80;;;;;;;6.60;75.38;97791.81;5017156;28;20132;-68
2021/01/24 09:37:49;;;;;;;6.28;3.45;;;;;;;6.79;74.69;97794.09;5017029;28;20077;-68
2021/01/24 09:40:17;;;;;;;7.38;4.10;;;;;;;6.66;74.92;97803.56;5017079;28;20038;-68
2021/01/24 09:42:44;;;;;;;6.90;4.32;;;;;;;6.62;74.98;97810.38;5016960;28;20124;-69
2021/01/24 09:45:13;;;;;;;6.82;3.78;;;;;;;6.60;74.62;97794.38;5017037;28;20086;-68
2021/01/24 09:47:41;;;;;;;6.35;4.00;;;;;;;6.80;74.17;97813.50;5016927;28;20491;-68
2021/01/24 09:50:11;;;;;;;7.68;4.40;;;;;;;6.73;74.13;97808.53;5016879;28;20078;-68
2021/01/24 09:52:38;;;;;;;6.22;3.65;;;;;;;6.66;74.24;97806.97;5016876;28;20483;-68
2021/01/24 09:55:07;;;;;;;6.03;3.92;;;;;;;6.85;74.02;97806.66;5017139;28;20058;-68
2021/01/24 09:57:37;;;;;;;6.43;4.18;;;;;;;6.99;73.44;97804.72;5017038;28;20492;-69
2021/01/24 10:00:07;;;;;;;7.38;3.83;;;;;;;6.73;73.03;97780.66;5016701;28;20038;-68
2021/01/24 10:02:39;;;;;;;6.97;4.63;;;;;;;6.73;73.45;97807.69;5016797;28;20498;-68
2021/01/24 10:07:52;;;;;;;6.93;3.78;;;;;;;6.41;73.80;97820.84;4975917;28;20507;-68
2021/01/24 10:10:19;;;;;;;6.88;4.63;;;;;;;6.88;73.36;97826.91;4975445;28;20046;-68
2021/01/24 10:12:47;;;;;;;7.78;4.47;;;;;;;7.06;73.09;97831.66;4975770;28;20070;-68
2021/01/24 10:15:15;;;;;;;7.18;4.20;;;;;;;6.13;73.53;97839.81;4975386;28;20043;-68
2021/01/24 10:17:43;;;;;;;9.43;5.13;;;;;;;5.56;74.35;97855.63;4975187;28;20146;-68
2021/01/24 10:20:11;;;;;;;9.27;5.45;;;;;;;5.23;75.72;97852.56;4975521;28;20529;-68
2021/01/24 10:22:39;;;;;;;7.90;4.90;;;;;;;5.13;76.18;97848.47;4975204;28;20047;-68
2021/01/24 10:25:09;;;;;;;8.43;5.20;;;;;;;5.23;76.46;97846.69;4975162;28;20130;-69
2021/01/24 10:27:36;;;;;;;;;;;;;;;5.04;76.47;97840.13;4975791;28;20086;-68
2021/01/24 10:30:06;;;;;;;8.18;4.43;;;;;;;4.92;76.71;97840.22;4974467;28;19922;-69
2021/01/24 10:32:34;;;;;;;9.85;5.35;;;;;;;4.72;76.97;97845.44;4975497;28;20051;-68
2021/01/24 10:35:02;;;;;;;8.77;5.40;;;;;;;4.63;77.85;97837.94;4974966;28;20223;-68
2021/01/24 10:37:31;;;;;;;9.00;5.53;;;;;;;4.67;77.80;97855.56;4974877;28;20448;-68
2021/01/24 10:39:59;;;;;;;8.55;4.95;;;;;;;4.82;78.86;97859.69;4974976;28;20057;-68
2021/01/24 10:42:27;;;;;;;9.95;5.60;;;;;;;4.86;78.05;97858.81;4975072;28;20051;-68
2021/01/24 10:44:57;;;;;;;9.90;5.90;;;;;;;4.98;78.58;97856.19;4984712;28;20495;-68
2021/01/24 10:47:25;;;;;;;9.68;5.78;;;;;;;5.01;78.65;97852.78;4996317;28;20046;-68
2021/01/24 10:49:53;;;;;;;8.95;5.57;;;;;;;5.21;78.12;97854.28;4996159;28;20401;-68
2021/01/24 10:52:20;;;;;;;9.85;6.03;;;;;;;5.56;77.75;97855.63;4996208;28;20097;-68
2021/01/24 10:54:48;;;;;;;9.13;5.10;;;;;;;5.59;77.70;97860.69;4996111;28;20377;-68
2021/01/24 10:57:16;;;;;;;8.43;4.80;;;;;;;5.50;77.82;97865.81;4996043;28;20053;-68
2021/01/24 10:59:44;;;;;;;10.30;5.95;;;;;;;5.34;77.51;97881.16;4996153;28;20050;-68
2021/01/24 11:02:12;;;;;;;9.95;6.00;;;;;;;5.29;77.95;97885.41;4995910;28;20052;-69
2021/01/24 11:04:40;;;;;;;10.00;5.57;;;;;;;5.27;77.91;97897.22;4995884;28;20043;-68
2021/01/24 11:07:08;;;;;;;10.13;5.45;;;;;;;5.23;78.24;97895.56;4995851;28;20046;-68
2021/01/24 11:09:36;;;;;;;12.55;6.13;;;;;;;5.06;78.91;97867.03;4995877;28;20047;-68
2021/01/24 11:12:18;;;;;;;10.30;6.03;;;;;;;5.21;79.01;97884.63;4917087;29;20131;-68
2021/01/24 11:14:47;;;;;;;9.00;5.45;;;;;;;5.22;78.98;97881.25;4916771;29;20044;-68
2021/01/24 11:17:15;;;;;;;;;;;;;;;5.37;78.54;97886.16;4916910;29;20056;-68
2021/01/24 11:19:44;;;;;;;8.93;5.43;;;;;;;5.38;79.00;97882.78;4916919;29;20025;-68
2021/01/24 11:22:12;;;;;;;8.70;4.95;;;;;;;5.25;78.58;97875.34;4916790;29;20044;-68
2021/01/24 11:24:40;;;;;;;9.02;5.63;;;;;;;5.26;78.45;97877.84;4916805;29;20068;-68
2021/01/24 11:27:08;;;;;;;8.25;4.78;;;;;;;5.55;78.02;97875.03;4916613;29;20406;-68
2021/01/24 11:29:36;;;;;;;8.85;5.30;;;;;;;6.18;77.39;97873.50;4916569;29;20108;-68
2021/01/24 11:32:07;;;;;;;7.28;4.07;;;;;;;6.45;75.91;97872.31;4916541;29;20044;-68
2021/01/24 11:34:36;;;;;;;7.55;4.05;;;;;;;6.38;74.85;97873.25;4916563;29;20466;-68
2021/01/24 11:37:05;;;;;;;7.50;4.50;;;;;;;6.50;74.83;97871.38;4916682;28;20048;-68
2021/01/24 11:39:36;;;;;;;7.78;4.65;;;;;;;6.45;74.40;97863.03;4916023;29;20044;-68
2021/01/24 11:42:05;;;;;;;8.50;4.57;;;;;;;6.81;72.93;97870.94;4916046;29;20051;-68
2021/01/24 11:44:32;;;;;;;7.35;4.20;;;;;;;6.62;72.98;97871.19;4916382;29;20123;-68
2021/01/24 11:47:00;;;;;;;6.65;4.10;;;;;;;6.54;72.45;97869.66;4916496;29;20052;-68
2021/01/24 11:49:29;;;;;;;7.20;4.40;;;;;;;6.31;72.82;97874.19;4963370;28;20134;-69
2021/01/24 11:51:57;;;;;;;7.70;4.55;;;;;;;6.17;73.21;97868.47;5014745;28;20048;-68